createdAt,value
2022-11-27T00:02:14.808Z,4.50
2022-11-27T00:07:17.521Z,4.50
2022-11-27T00:12:20.158Z,4.40
2022-11-27T00:17:22.714Z,4.40
2022-11-27T00:22:26.796Z,4.40
2022-11-27T00:27:29.370Z,4.40
2022-11-27T00:32:31.951Z,4.40
2022-11-27T00:37:34.573Z,4.40
2022-11-27T00:42:37.253Z,4.50
2022-11-27T00:47:39.944Z,4.40
2022-11-27T00:52:42.715Z,4.40
2022-11-27T00:57:45.514Z,4.40
2022-11-27T01:02:48.158Z,4.40
2022-11-27T01:07:51.294Z,4.40
2022-11-27T01:12:53.903Z,4.40
2022-11-27T01:17:56.534Z,4.40
2022-11-27T01:22:59.163Z,4.40
2022-11-27T01:28:01.825Z,4.30
2022-11-27T01:33:04.514Z,4.20
2022-11-27T01:38:07.122Z,4.30
2022-11-27T01:43:16.985Z,4.30
2022-11-27T01:48:19.654Z,4.20
2022-11-27T01:53:22.411Z,4.20
2022-11-27T01:58:30.692Z,4.20
2022-11-27T02:03:33.707Z,4.30
2022-11-27T02:08:36.604Z,4.10
2022-11-27T02:13:53.175Z,4.20
2022-11-27T02:19:13.765Z,4.00
2022-11-27T02:24:35.190Z,4.00
2022-11-27T02:29:41.099Z,4.00
2022-11-27T02:34:48.915Z,4.00
2022-11-27T02:40:26.360Z,4.00
2022-11-27T02:45:43.000Z,4.00
2022-11-27T02:50:49.296Z,4.00
2022-11-27T02:55:53.723Z,3.90
2022-11-27T03:00:57.684Z,4.00
2022-11-27T03:06:09.366Z,3.90
2022-11-27T03:11:15.226Z,4.00
2022-11-27T03:16:25.086Z,4.00
2022-11-27T03:21:45.608Z,4.00
2022-11-27T03:26:49.864Z,3.90
2022-11-27T03:31:52.975Z,3.80
2022-11-27T03:36:55.754Z,3.80
2022-11-27T03:42:15.054Z,3.70
2022-11-27T03:47:28.344Z,3.80
2022-11-27T03:52:48.494Z,3.80
2022-11-27T03:57:54.060Z,3.80
2022-11-27T04:02:56.699Z,3.90
2022-11-27T04:07:59.271Z,3.90
2022-11-27T04:13:01.914Z,3.90
2022-11-27T04:18:04.917Z,3.80
2022-11-27T04:23:07.543Z,3.80
2022-11-27T04:28:10.257Z,3.70
2022-11-27T04:33:12.889Z,3.80
2022-11-27T04:38:15.617Z,3.90
2022-11-27T04:43:18.157Z,3.90
2022-11-27T04:48:20.731Z,3.80
2022-11-27T04:53:23.360Z,3.80
2022-11-27T04:58:26.248Z,3.80
2022-11-27T05:03:28.845Z,3.70
2022-11-27T05:08:33.597Z,3.80
2022-11-27T05:13:36.333Z,3.80
2022-11-27T05:18:38.904Z,3.90
2022-11-27T05:23:41.401Z,3.90
2022-11-27T05:28:43.932Z,3.90
2022-11-27T05:33:46.468Z,3.80
2022-11-27T05:38:49.374Z,3.80
2022-11-27T05:43:52.001Z,3.80
2022-11-27T05:48:54.579Z,3.80
2022-11-27T05:53:57.154Z,3.80
2022-11-27T05:58:59.958Z,3.70
2022-11-27T06:04:02.586Z,3.70
2022-11-27T06:09:10.853Z,3.70
2022-11-27T06:14:15.329Z,3.70
2022-11-27T06:19:17.974Z,3.70
2022-11-27T06:24:20.562Z,3.70
2022-11-27T06:29:23.163Z,3.60
2022-11-27T06:34:25.783Z,3.60
2022-11-27T06:39:28.573Z,3.50
2022-11-27T06:44:31.143Z,3.60
2022-11-27T06:49:33.784Z,3.60
2022-11-27T06:54:36.353Z,3.70
2022-11-27T06:59:38.902Z,3.70
2022-11-27T07:04:41.833Z,3.70
2022-11-27T07:09:44.605Z,3.80
2022-11-27T07:14:47.139Z,3.90
2022-11-27T07:19:49.703Z,3.90
2022-11-27T07:24:52.294Z,3.90
2022-11-27T07:29:54.970Z,4.00
2022-11-27T07:34:57.584Z,4.20
2022-11-27T07:40:03.181Z,4.20
2022-11-27T07:45:08.388Z,4.40
2022-11-27T07:50:11.696Z,4.50
2022-11-27T07:55:14.695Z,4.50
2022-11-27T08:00:17.796Z,4.60
2022-11-27T08:05:20.461Z,4.80
2022-11-27T08:10:23.214Z,4.90
2022-11-27T08:15:25.810Z,4.90
2022-11-27T08:20:28.516Z,5.00
2022-11-27T08:25:32.132Z,5.00
2022-11-27T08:30:34.802Z,5.10
2022-11-27T08:35:37.374Z,5.30
2022-11-27T08:40:40.384Z,5.40
2022-11-27T08:45:42.994Z,5.70
2022-11-27T08:50:46.295Z,5.70
2022-11-27T08:55:48.982Z,5.60
2022-11-27T09:00:51.740Z,5.60
2022-11-27T09:05:54.439Z,5.50
2022-11-27T09:11:01.521Z,5.50
2022-11-27T09:16:12.452Z,5.60
2022-11-27T09:21:16.839Z,5.80
2022-11-27T09:26:19.624Z,5.80
2022-11-27T09:31:23.157Z,5.80
2022-11-27T09:36:27.101Z,5.80
2022-11-27T09:41:39.887Z,5.80
2022-11-27T09:46:43.783Z,5.60
2022-11-27T09:52:10.725Z,5.80
2022-11-27T09:57:21.952Z,5.80
2022-11-27T10:02:34.043Z,6.00
2022-11-27T10:07:48.982Z,6.00
2022-11-27T10:13:07.741Z,6.00
2022-11-27T10:18:40.182Z,5.90
2022-11-27T10:24:06.160Z,5.90
2022-11-27T10:29:27.692Z,5.80
2022-11-27T10:34:54.965Z,5.80
2022-11-27T10:40:06.682Z,5.80
2022-11-27T10:45:30.760Z,5.70
2022-11-27T10:50:34.171Z,5.60
2022-11-27T10:55:54.759Z,5.90
2022-11-27T11:01:02.298Z,5.80
2022-11-27T11:06:24.999Z,5.90
2022-11-27T11:11:28.333Z,6.00
2022-11-27T11:16:35.239Z,5.90
2022-11-27T11:21:45.375Z,5.90
2022-11-27T11:26:51.441Z,6.00
2022-11-27T11:31:57.298Z,6.20
2022-11-27T11:37:04.716Z,6.40
2022-11-27T11:42:18.824Z,6.90
2022-11-27T11:47:25.306Z,7.60
2022-11-27T11:52:54.139Z,7.70
2022-11-27T11:58:15.461Z,7.50
2022-11-27T12:03:39.662Z,7.50
2022-11-27T12:08:51.900Z,7.20
2022-11-27T12:14:02.640Z,6.90
2022-11-27T12:19:37.789Z,6.70
2022-11-27T12:25:10.618Z,6.70
2022-11-27T12:30:36.530Z,6.70
2022-11-27T12:36:18.191Z,6.50
2022-11-27T12:41:57.651Z,6.60
2022-11-27T12:47:04.009Z,6.30
2022-11-27T12:52:17.190Z,6.40
2022-11-27T12:57:43.068Z,6.20
2022-11-27T13:02:54.622Z,6.20
2022-11-27T13:08:13.433Z,6.20
2022-11-27T13:13:42.260Z,6.10
2022-11-27T13:19:00.249Z,6.20
2022-11-27T13:24:04.202Z,6.30
2022-11-27T13:29:37.313Z,6.10
2022-11-27T13:34:47.061Z,6.00
2022-11-27T13:39:49.709Z,5.90
2022-11-27T13:45:06.464Z,5.80
2022-11-27T13:50:14.142Z,5.80
2022-11-27T13:55:28.610Z,5.70
2022-11-27T14:00:43.630Z,5.60
2022-11-27T14:05:46.532Z,5.60
2022-11-27T14:11:00.959Z,5.40
2022-11-27T14:16:08.609Z,5.40
2022-11-27T14:21:25.282Z,5.30
2022-11-27T14:26:27.990Z,5.30
2022-11-27T14:31:38.862Z,5.20
2022-11-27T14:36:42.419Z,5.30
2022-11-27T14:41:45.141Z,5.30
2022-11-27T14:46:48.580Z,5.20
2022-11-27T14:51:52.072Z,5.10
2022-11-27T14:56:56.501Z,5.10
2022-11-27T15:02:10.872Z,5.00
2022-11-27T15:07:28.227Z,5.00
2022-11-27T15:12:34.789Z,5.00
2022-11-27T15:17:39.820Z,5.00
2022-11-27T15:22:54.331Z,4.90
2022-11-27T15:27:57.137Z,4.90
2022-11-27T15:33:00.682Z,4.90
2022-11-27T15:38:18.678Z,4.80
2022-11-27T15:43:21.359Z,4.80
2022-11-27T15:48:24.097Z,4.80
2022-11-27T15:53:26.950Z,4.80
2022-11-27T15:58:29.857Z,4.60
2022-11-27T16:03:32.461Z,4.60
2022-11-27T16:08:35.452Z,4.70
2022-11-27T16:13:38.139Z,4.60
2022-11-27T16:18:40.849Z,4.70
2022-11-27T16:23:44.342Z,4.60
2022-11-27T16:28:47.245Z,4.60
2022-11-27T16:33:51.653Z,4.60
2022-11-27T16:38:56.669Z,4.50
2022-11-27T16:44:00.279Z,4.50
2022-11-27T16:49:06.791Z,4.40
2022-11-27T16:54:12.021Z,4.40
2022-11-27T16:59:17.381Z,4.40
2022-11-27T17:04:21.670Z,4.40
2022-11-27T17:09:29.467Z,4.40
2022-11-27T17:14:32.160Z,4.50
2022-11-27T17:19:34.906Z,4.40
2022-11-27T17:24:37.902Z,4.40
2022-11-27T17:29:42.594Z,4.30
2022-11-27T17:34:45.839Z,4.30
2022-11-27T17:39:48.800Z,4.30
2022-11-27T17:44:51.858Z,4.30
2022-11-27T17:49:54.490Z,4.20
2022-11-27T17:54:57.216Z,4.20
2022-11-27T18:00:00.183Z,4.10
2022-11-27T18:05:03.042Z,4.10
2022-11-27T18:10:07.324Z,4.10
2022-11-27T18:15:10.515Z,4.00
2022-11-27T18:20:13.632Z,4.00
2022-11-27T18:25:16.540Z,4.00
2022-11-27T18:30:19.363Z,3.90
2022-11-27T18:35:24.219Z,3.90
2022-11-27T18:40:27.102Z,3.90
2022-11-27T18:45:33.483Z,3.90
2022-11-27T18:50:37.253Z,3.90
2022-11-27T18:55:39.990Z,3.90
2022-11-27T19:00:44.978Z,3.90
2022-11-27T19:05:47.673Z,3.90
2022-11-27T19:10:50.552Z,4.00
2022-11-27T19:15:53.569Z,4.00
2022-11-27T19:20:57.094Z,4.00
2022-11-27T19:26:05.497Z,4.00
2022-11-27T19:31:10.922Z,4.00
2022-11-27T19:36:14.899Z,3.90
2022-11-27T19:41:19.179Z,3.90
2022-11-27T19:46:27.635Z,3.80
2022-11-27T19:51:35.405Z,3.70
2022-11-27T19:56:40.293Z,3.80
2022-11-27T20:01:43.411Z,3.80
2022-11-27T20:06:46.189Z,3.80
2022-11-27T20:11:49.211Z,3.90
2022-11-27T20:16:52.154Z,3.80
2022-11-27T20:21:55.487Z,3.80
2022-11-27T20:26:58.852Z,3.80
2022-11-27T20:32:01.912Z,3.80
2022-11-27T20:37:04.866Z,3.80
2022-11-27T20:42:08.086Z,3.80
2022-11-27T20:47:12.290Z,3.80
2022-11-27T20:52:15.574Z,3.80
2022-11-27T20:57:18.541Z,3.80
2022-11-27T21:02:21.469Z,3.80
2022-11-27T21:07:24.892Z,3.80
2022-11-27T21:12:27.705Z,3.80
2022-11-27T21:17:30.925Z,3.80
2022-11-27T21:22:34.101Z,3.80
2022-11-27T21:27:38.031Z,3.80
2022-11-27T21:32:40.698Z,3.80
2022-11-27T21:37:44.206Z,3.70
2022-11-27T21:42:46.852Z,3.70
2022-11-27T21:47:49.491Z,3.80
2022-11-27T21:52:53.612Z,3.80
2022-11-27T21:57:56.813Z,3.80
2022-11-27T22:02:59.582Z,3.80
2022-11-27T22:13:22.702Z,3.80
2022-11-27T22:18:25.422Z,3.80
2022-11-27T22:23:28.424Z,3.80
2022-11-27T22:28:31.496Z,3.80
2022-11-27T22:33:35.714Z,3.80
2022-11-27T22:38:38.975Z,3.80
2022-11-27T22:43:41.948Z,3.70
2022-11-27T22:48:45.406Z,3.70
2022-11-27T22:53:48.292Z,3.70
2022-11-27T22:58:58.278Z,3.70
2022-11-27T23:04:09.572Z,3.70
2022-11-27T23:09:12.655Z,3.60
2022-11-27T23:14:15.567Z,3.60
2022-11-27T23:19:18.227Z,3.50
2022-11-27T23:24:21.166Z,3.40
2022-11-27T23:29:23.753Z,3.40
2022-11-27T23:34:26.344Z,3.40
2022-11-27T23:39:29.091Z,3.40
2022-11-27T23:44:31.665Z,3.40
2022-11-27T23:49:34.527Z,3.30
2022-11-27T23:54:37.075Z,3.30
2022-11-27T23:59:39.754Z,3.30
